Time;durP1;ratioP1;P1;durP2;ratioP2;P2;SDS_P1;SDS_P2;PMS_P1;PMS_P2;Temp;Humidity;BMP_temperature;BMP_pressure;BME280_temperature;BME280_humidity;BME280_pressure;Samples;Min_cycle;Max_cycle;Signal;HPM_P1;HPM_P2
2023/02/11 00:02:07;;;;;;;34.58;19.40;;;0.60;86.60;;;;;;5087586;28;20048;-64
2023/02/11 00:04:35;;;;;;;34.35;18.33;;;0.60;86.60;;;;;;5090975;28;20075;-64
2023/02/11 00:07:03;;;;;;;33.88;19.10;;;0.60;86.70;;;;;;5087047;28;20126;-65
2023/02/11 00:09:30;;;;;;;35.45;18.30;;;0.60;86.70;;;;;;5090786;28;20044;-65
2023/02/11 00:11:56;;;;;;;34.30;18.88;;;0.60;86.40;;;;;;5090082;28;20051;-64
2023/02/11 00:14:23;;;;;;;36.70;19.77;;;0.60;86.30;;;;;;5088847;28;20055;-65
2023/02/11 00:16:56;;;;;;;38.25;20.02;;;0.70;86.20;;;;;;5084190;28;20052;-60
2023/02/11 00:19:26;;;;;;;36.70;19.83;;;0.70;86.40;;;;;;5090397;28;20048;-61
2023/02/11 00:21:54;;;;;;;36.05;18.77;;;0.60;86.50;;;;;;5086667;28;20044;-60
2023/02/11 00:24:21;;;;;;;38.05;20.63;;;0.60;86.60;;;;;;5083970;28;20040;-59
2023/02/11 00:26:48;;;;;;;38.38;21.00;;;0.60;86.70;;;;;;5088952;28;20475;-59
2023/02/11 00:29:15;;;;;;;34.75;20.25;;;0.60;86.80;;;;;;5089498;28;20066;-60
2023/02/11 00:31:42;;;;;;;31.63;18.45;;;0.60;86.90;;;;;;5067301;28;20064;-61
2023/02/11 00:34:10;;;;;;;36.20;18.98;;;0.60;87.00;;;;;;5064261;28;20121;-62
2023/02/11 00:36:38;;;;;;;33.90;19.23;;;0.70;87.00;;;;;;5090033;28;20406;-61
2023/02/11 00:39:07;;;;;;;33.90;18.98;;;0.70;87.00;;;;;;5086588;28;20044;-61
2023/02/11 00:41:35;;;;;;;31.40;18.55;;;0.70;86.90;;;;;;5086293;28;20612;-62
2023/02/11 00:44:07;;;;;;;31.80;16.38;;;0.70;86.90;;;;;;5088079;28;20395;-61
2023/02/11 00:46:35;;;;;;;29.10;16.80;;;0.70;86.90;;;;;;5068778;28;20429;-61
2023/02/11 00:49:02;;;;;;;30.65;16.23;;;0.70;87.10;;;;;;5090056;28;20048;-60
2023/02/11 00:51:29;;;;;;;31.50;17.08;;;0.80;87.30;;;;;;5088080;28;20475;-60
2023/02/11 00:53:56;;;;;;;29.67;16.08;;;0.80;87.30;;;;;;5089966;28;20131;-60
2023/02/11 00:56:24;;;;;;;31.48;16.35;;;0.80;87.00;;;;;;5088659;28;20052;-61
2023/02/11 00:58:52;;;;;;;35.80;18.83;;;0.80;87.20;;;;;;5088739;28;20059;-60
2023/02/11 01:01:19;;;;;;;34.35;19.10;;;0.80;87.30;;;;;;5088125;28;20126;-60
2023/02/11 01:03:46;;;;;;;36.58;18.92;;;0.90;87.30;;;;;;5089306;28;20074;-61
2023/02/11 01:06:13;;;;;;;36.92;20.27;;;0.90;87.40;;;;;;5070746;28;20094;-73
2023/02/11 01:08:40;;;;;;;38.47;19.00;;;0.90;87.40;;;;;;5071982;28;20132;-72
2023/02/11 01:11:13;;;;;;;31.65;18.35;;;0.90;87.40;;;;;;5072083;28;20040;-70
2023/02/11 01:13:42;;;;;;;34.90;18.95;;;0.90;87.40;;;;;;5068264;28;20407;-68
2023/02/11 01:16:11;;;;;;;34.25;18.90;;;0.90;87.70;;;;;;5089720;28;20568;-64
2023/02/11 01:18:38;;;;;;;34.60;20.23;;;0.90;87.60;;;;;;5088314;28;20043;-64
2023/02/11 01:21:06;;;;;;;35.72;18.88;;;0.90;87.70;;;;;;5066114;28;20052;-60
2023/02/11 01:23:33;;;;;;;36.40;18.55;;;0.90;87.20;;;;;;5085591;28;20130;-61
2023/02/11 01:26:02;;;;;;;38.97;18.98;;;1.00;87.60;;;;;;5064324;28;20103;-61
2023/02/11 01:28:30;;;;;;;35.00;19.17;;;1.00;87.60;;;;;;5085375;28;20048;-61
2023/02/11 01:31:02;;;;;;;37.70;19.52;;;1.00;87.50;;;;;;5066863;28;20052;-60
2023/02/11 01:33:29;;;;;;;37.20;18.23;;;1.00;87.70;;;;;;5083506;28;20052;-61
2023/02/11 01:35:59;;;;;;;34.70;19.65;;;1.00;87.60;;;;;;5088166;28;20097;-72
2023/02/11 01:38:29;;;;;;;35.65;19.17;;;1.00;87.60;;;;;;5084231;28;20051;-72
2023/02/11 01:40:58;;;;;;;37.35;20.35;;;1.00;87.60;;;;;;5065397;28;20495;-61
2023/02/11 01:43:28;;;;;;;34.28;20.25;;;1.00;87.60;;;;;;5066008;28;20143;-61
2023/02/11 01:46:02;;;;;;;35.38;19.58;;;1.00;87.70;;;;;;5074587;28;20097;-69
2023/02/11 01:48:33;;;;;;;33.97;19.35;;;1.00;87.80;;;;;;5084833;28;20052;-71
2023/02/11 01:51:06;;;;;;;33.80;19.85;;;1.10;87.70;;;;;;5067786;28;20047;-64
2023/02/11 01:59:10;;;;;;;37.70;19.95;;;1.10;87.80;;;;;;5066065;28;20075;-64
2023/02/11 02:01:41;;;;;;;37.03;18.60;;;1.20;88.00;;;;;;5065936;28;20069;-64
2023/02/11 02:04:09;;;;;;;33.28;18.75;;;1.20;87.80;;;;;;5084917;28;20051;-62
2023/02/11 02:06:40;;;;;;;32.40;18.60;;;1.20;87.90;;;;;;5082820;28;20048;-61
2023/02/11 02:09:11;;;;;;;34.42;19.00;;;1.20;87.90;;;;;;5067530;28;20056;-61
2023/02/11 02:11:38;;;;;;;37.95;20.08;;;1.30;88.00;;;;;;5085087;28;20049;-63
2023/02/11 02:14:05;;;;;;;35.13;19.25;;;1.20;88.00;;;;;;5065596;28;20525;-63
2023/02/11 02:16:35;;;;;;;37.80;20.30;;;1.30;88.00;;;;;;5082953;28;20064;-62
2023/02/11 02:19:24;;;;;;;37.47;20.90;;;1.30;88.10;;;;;;5087005;28;20032;-63
2023/02/11 02:22:20;;;;;;;40.05;20.50;;;1.30;87.90;;;;;;5066994;28;21332;-59
2023/02/11 02:25:04;;;;;;;38.58;18.83;;;1.40;88.00;;;;;;5086243;28;20050;-59
2023/02/11 02:27:41;;;;;;;41.40;20.20;;;1.40;87.90;;;;;;5084244;28;20055;-65
2023/02/11 02:30:51;;;;;;;36.78;19.27;;;1.40;88.00;;;;;;5082328;28;20055;-64
2023/02/11 02:33:34;;;;;;;35.95;18.80;;;1.40;88.00;;;;;;5081887;28;20036;-67
2023/02/11 02:36:09;;;;;;;36.08;18.70;;;1.40;87.90;;;;;;5084368;28;20059;-73
2023/02/11 02:38:40;;;;;;;35.90;19.35;;;1.40;88.00;;;;;;5086260;28;20071;-70
2023/02/11 02:41:10;;;;;;;38.75;20.40;;;1.40;88.10;;;;;;5083459;28;20043;-59
2023/02/11 02:43:40;;;;;;;39.30;20.73;;;1.40;87.90;;;;;;5081947;28;20039;-60
2023/02/11 02:46:12;;;;;;;38.00;21.05;;;1.40;87.90;;;;;;5083222;28;20410;-64
2023/02/11 02:52:36;;;;;;;33.50;17.73;;;1.40;88.00;;;;;;5014442;23;20046;-63
2023/02/11 02:55:11;;;;;;;34.90;18.48;;;1.40;87.90;;;;;;5011381;28;20438;-64
2023/02/11 02:57:52;;;;;;;35.42;18.70;;;1.40;88.00;;;;;;5011765;28;20049;-64
2023/02/11 03:00:29;;;;;;;32.58;18.25;;;1.40;87.90;;;;;;5012898;28;20061;-61
2023/02/11 03:03:17;;;;;;;36.50;19.98;;;1.40;87.90;;;;;;5017126;28;20076;-62
2023/02/11 03:05:51;;;;;;;37.53;19.50;;;1.30;88.20;;;;;;5016232;28;20045;-62
2023/02/11 03:08:27;;;;;;;33.40;18.23;;;1.30;88.00;;;;;;5016287;28;20045;-61
2023/02/11 03:10:55;;;;;;;34.40;19.30;;;1.30;88.00;;;;;;5017675;28;20088;-61
2023/02/11 03:13:32;;;;;;;36.00;18.50;;;1.30;88.20;;;;;;5014143;28;20053;-60
2023/02/11 03:16:02;;;;;;;38.17;18.90;;;1.30;88.10;;;;;;5014945;28;20052;-61
2023/02/11 03:18:33;;;;;;;31.63;17.88;;;1.40;88.00;;;;;;5014502;28;20480;-61
2023/02/11 03:21:01;;;;;;;;;;;1.40;88.00;;;;;;5011843;28;20604;-62
2023/02/11 03:23:34;;;;;;;32.92;18.10;;;1.40;88.10;;;;;;5014860;28;19925;-61
2023/02/11 03:26:08;;;;;;;36.55;20.15;;;1.40;88.30;;;;;;5016427;28;20065;-61
2023/02/11 03:28:39;;;;;;;37.28;19.52;;;1.40;88.30;;;;;;5015652;28;20056;-62
2023/02/11 03:31:12;;;;;;;33.83;18.83;;;1.40;88.30;;;;;;5014849;28;20495;-62
2023/02/11 03:33:46;;;;;;;37.20;19.70;;;1.40;88.50;;;;;;5015795;28;20054;-61
2023/02/11 03:36:19;;;;;;;36.33;18.55;;;1.50;88.40;;;;;;5011875;28;20062;-61
2023/02/11 03:38:51;;;;;;;35.75;18.55;;;1.50;88.40;;;;;;5015633;28;20105;-62
2023/02/11 03:41:23;;;;;;;37.22;19.73;;;1.50;88.20;;;;;;5015508;28;20579;-61
2023/02/11 03:43:53;;;;;;;35.03;18.70;;;1.50;88.30;;;;;;5016338;28;20415;-61
2023/02/11 03:46:27;;;;;;;36.10;19.17;;;1.50;88.40;;;;;;5016351;28;20053;-62
2023/02/11 03:48:58;;;;;;;35.03;19.23;;;1.50;88.50;;;;;;5016174;28;20072;-62
2023/02/11 03:51:27;;;;;;;38.20;20.20;;;1.50;88.40;;;;;;5025493;28;20041;-62
2023/02/11 03:53:58;;;;;;;35.72;18.48;;;1.50;88.50;;;;;;5032542;28;20045;-62
2023/02/11 03:56:29;;;;;;;40.38;20.55;;;1.60;88.90;;;;;;5034599;28;20132;-67
2023/02/11 03:58:56;;;;;;;37.15;20.33;;;1.60;89.00;;;;;;5037336;28;20064;-61
2023/02/11 04:01:23;;;;;;;39.75;19.48;;;1.60;88.60;;;;;;5039663;28;20041;-61
2023/02/11 04:03:50;;;;;;;36.25;20.25;;;1.60;88.80;;;;;;5038039;28;20053;-61
2023/02/11 04:06:17;;;;;;;39.20;21.00;;;1.60;88.90;;;;;;5039495;28;20056;-62
2023/02/11 04:08:44;;;;;;;39.20;20.50;;;1.60;88.90;;;;;;5038928;28;20394;-61
2023/02/11 04:11:12;;;;;;;36.63;19.17;;;1.70;88.80;;;;;;5037409;28;20114;-60
2023/02/11 04:13:39;;;;;;;35.67;19.40;;;1.70;89.00;;;;;;5039848;28;20072;-62
2023/02/11 04:16:07;;;;;;;39.85;20.67;;;1.70;89.10;;;;;;5038474;28;20395;-63
2023/02/11 04:18:34;;;;;;;40.90;19.65;;;1.70;88.90;;;;;;5037349;28;20041;-61
2023/02/11 04:21:00;;;;;;;34.72;19.27;;;1.70;89.00;;;;;;5039106;28;20412;-61
2023/02/11 04:23:28;;;;;;;37.70;19.63;;;1.70;88.70;;;;;;5036185;28;20530;-61
2023/02/11 04:25:54;;;;;;;32.30;18.90;;;1.70;88.70;;;;;;5035472;28;20418;-61
2023/02/11 04:28:23;;;;;;;38.00;19.98;;;1.70;88.60;;;;;;5036879;28;20495;-61
2023/02/11 04:30:51;;;;;;;39.53;20.30;;;1.70;88.60;;;;;;5038599;28;20057;-61
2023/02/11 04:33:18;;;;;;;36.67;19.98;;;1.70;88.60;;;;;;5035272;28;20497;-61
2023/02/11 04:35:45;;;;;;;37.58;19.63;;;1.70;88.70;;;;;;5037345;28;20053;-62
2023/02/11 04:38:12;;;;;;;38.38;20.80;;;1.70;88.60;;;;;;5035049;28;20411;-61
2023/02/11 04:40:39;;;;;;;37.70;20.10;;;1.70;88.60;;;;;;5037997;28;20045;-61
2023/02/11 04:43:07;;;;;;;40.65;20.73;;;1.80;88.90;;;;;;5038146;28;20078;-62
2023/02/11 04:45:35;;;;;;;33.72;20.08;;;1.80;89.00;;;;;;5038129;28;20076;-62
2023/02/11 04:48:03;;;;;;;37.53;19.00;;;1.80;89.00;;;;;;5033022;28;20724;-61
2023/02/11 04:50:30;;;;;;;40.22;19.88;;;1.80;89.10;;;;;;5037720;28;20053;-61
2023/02/11 04:52:57;;;;;;;40.00;20.73;;;1.80;89.10;;;;;;5038465;28;20052;-62
2023/02/11 04:55:24;;;;;;;34.85;19.75;;;1.80;89.00;;;;;;5034335;28;20564;-62
2023/02/11 04:57:51;;;;;;;34.88;19.63;;;1.80;89.00;;;;;;5037741;28;20152;-61
2023/02/11 05:00:18;;;;;;;34.13;19.27;;;1.80;89.00;;;;;;5037459;28;20422;-62
2023/02/11 05:02:46;;;;;;;37.53;19.98;;;1.80;89.00;;;;;;5037784;28;20055;-62
2023/02/11 05:05:14;;;;;;;36.42;18.88;;;1.90;89.00;;;;;;5036840;28;20041;-61
2023/02/11 05:07:41;;;;;;;37.65;19.48;;;1.90;89.00;;;;;;5034852;28;20057;-61
2023/02/11 05:10:08;;;;;;;35.78;18.85;;;1.90;89.00;;;;;;5038159;28;20052;-62
2023/02/11 05:12:35;;;;;;;37.78;18.73;;;1.90;88.90;;;;;;5034628;28;20045;-62
2023/02/11 05:15:02;;;;;;;37.80;19.75;;;1.90;88.80;;;;;;5037162;28;20067;-62
2023/02/11 05:17:29;;;;;;;36.78;19.23;;;1.90;88.80;;;;;;5035653;28;20060;-62
2023/02/11 05:19:57;;;;;;;39.83;18.70;;;1.90;88.90;;;;;;5037485;28;20091;-62
2023/02/11 05:22:24;;;;;;;36.17;19.02;;;1.90;88.80;;;;;;5036493;28;20128;-61
2023/02/11 05:24:51;;;;;;;37.03;19.45;;;1.90;88.90;;;;;;5035608;28;20045;-60
2023/02/11 05:27:18;;;;;;;32.22;18.33;;;1.90;88.90;;;;;;5036974;28;20061;-62
2023/02/11 05:29:44;;;;;;;36.70;19.15;;;1.90;88.90;;;;;;5035184;28;20053;-61
2023/02/11 05:32:11;;;;;;;37.03;19.58;;;1.90;88.80;;;;;;5036122;28;20050;-61
2023/02/11 05:34:38;;;;;;;36.33;19.05;;;1.90;88.70;;;;;;5037377;28;20037;-61
2023/02/11 05:37:07;;;;;;;37.33;19.08;;;1.90;88.90;;;;;;5033068;28;20078;-61
2023/02/11 05:39:33;;;;;;;35.30;19.10;;;1.90;88.80;;;;;;5037126;28;20071;-61
2023/02/11 05:42:00;;;;;;;34.13;18.30;;;2.00;88.60;;;;;;5037114;28;20048;-61
2023/02/11 05:44:28;;;;;;;34.85;18.83;;;2.00;88.60;;;;;;5036626;28;20132;-61
2023/02/11 05:46:54;;;;;;;32.67;19.15;;;2.00;88.70;;;;;;5037830;28;20053;-61
2023/02/11 05:49:21;;;;;;;37.40;18.25;;;2.00;88.80;;;;;;5036193;28;20064;-61
2023/02/11 05:51:48;;;;;;;36.22;18.75;;;2.00;88.80;;;;;;5036141;28;20562;-62
2023/02/11 05:54:17;;;;;;;34.03;18.42;;;2.00;88.80;;;;;;5036986;28;20049;-61
2023/02/11 05:56:44;;;;;;;34.60;18.73;;;2.00;88.90;;;;;;5034749;28;20054;-61
2023/02/11 05:59:13;;;;;;;32.38;17.67;;;2.00;88.70;;;;;;5037849;28;20045;-61
2023/02/11 06:01:39;;;;;;;35.15;18.15;;;2.00;88.70;;;;;;5036437;28;20053;-63
2023/02/11 06:04:10;;;;;;;;;;;2.00;88.70;;;;;;5036564;28;20065;-61
2023/02/11 06:06:37;;;;;;;32.03;18.15;;;2.10;88.70;;;;;;5037185;28;19931;-62
2023/02/11 06:09:04;;;;;;;36.35;19.13;;;2.00;88.80;;;;;;5035851;28;20045;-62
2023/02/11 06:11:33;;;;;;;35.03;17.58;;;2.00;88.70;;;;;;5034686;28;20484;-61
2023/02/11 06:14:06;;;;;;;35.05;18.20;;;2.10;88.60;;;;;;5037093;28;20081;-61
2023/02/11 06:16:33;;;;;;;33.60;17.98;;;2.10;88.60;;;;;;5037234;28;20168;-62
2023/02/11 06:19:00;;;;;;;37.42;18.85;;;2.10;88.60;;;;;;5035487;28;20519;-61
2023/02/11 06:21:28;;;;;;;35.47;18.23;;;2.10;88.60;;;;;;5034058;28;21000;-62
2023/02/11 06:23:54;;;;;;;31.50;16.75;;;2.10;88.40;;;;;;5036907;28;20049;-61
2023/02/11 06:26:23;;;;;;;34.97;18.88;;;2.00;88.30;;;;;;5036525;28;20049;-61
2023/02/11 06:28:51;;;;;;;34.65;17.80;;;2.10;88.40;;;;;;5036730;28;20049;-62
2023/02/11 06:31:18;;;;;;;35.55;17.60;;;2.10;88.40;;;;;;5034857;28;20068;-61
2023/02/11 06:33:45;;;;;;;31.83;17.75;;;2.00;88.20;;;;;;5035604;28;20080;-61
2023/02/11 06:36:14;;;;;;;32.25;17.55;;;2.00;88.30;;;;;;5036166;28;20057;-62
2023/02/11 06:38:41;;;;;;;34.17;18.00;;;2.00;88.40;;;;;;5036856;28;20133;-62
2023/02/11 06:41:10;;;;;;;30.90;17.42;;;2.00;88.40;;;;;;5035903;28;20048;-61
2023/02/11 06:43:38;;;;;;;31.83;17.88;;;2.00;88.40;;;;;;5033909;28;20053;-61
2023/02/11 06:46:07;;;;;;;34.45;18.05;;;2.00;88.40;;;;;;5036411;28;20060;-60
2023/02/11 06:48:35;;;;;;;33.03;17.10;;;2.00;88.50;;;;;;5035152;28;20058;-61
2023/02/11 06:51:03;;;;;;;31.98;16.77;;;2.00;88.40;;;;;;5037105;28;20061;-62
2023/02/11 06:53:36;;;;;;;33.22;17.00;;;2.10;88.30;;;;;;5035875;28;20071;-61
2023/02/11 06:56:04;;;;;;;32.60;17.23;;;2.10;88.20;;;;;;5035944;28;20068;-62
2023/02/11 06:58:31;;;;;;;32.17;18.42;;;2.10;88.40;;;;;;5034159;28;20050;-61
2023/02/11 07:00:58;;;;;;;33.13;18.27;;;2.10;88.40;;;;;;5034224;28;20061;-62
2023/02/11 07:03:27;;;;;;;32.03;16.63;;;2.10;88.40;;;;;;5037288;28;20060;-62
2023/02/11 07:05:53;;;;;;;33.50;17.85;;;2.10;88.40;;;;;;5037141;28;20063;-62
2023/02/11 07:08:20;;;;;;;34.92;17.60;;;2.20;88.20;;;;;;5035293;28;20119;-61
2023/02/11 07:10:47;;;;;;;31.52;17.95;;;2.20;88.30;;;;;;5037416;28;20061;-62
2023/02/11 07:13:14;;;;;;;32.30;17.25;;;2.20;88.30;;;;;;5034924;28;20053;-62
2023/02/11 07:15:41;;;;;;;33.83;18.17;;;2.20;88.30;;;;;;5035928;28;20053;-61
2023/02/11 07:18:08;;;;;;;32.42;17.08;;;2.20;88.20;;;;;;5035147;28;20056;-61
2023/02/11 07:20:37;;;;;;;33.08;17.27;;;2.20;88.20;;;;;;5036934;28;20042;-61
2023/02/11 07:23:10;;;;;;;32.85;17.48;;;2.20;88.20;;;;;;5034667;28;20052;-63
2023/02/11 07:25:37;;;;;;;31.38;17.45;;;2.30;88.10;;;;;;5035704;28;20041;-62
2023/02/11 07:28:05;;;;;;;32.95;17.10;;;2.30;88.00;;;;;;5036608;28;20045;-62
2023/02/11 07:30:32;;;;;;;34.00;17.55;;;2.30;88.00;;;;;;5037439;28;20466;-61
2023/02/11 07:32:58;;;;;;;30.15;16.77;;;2.40;88.00;;;;;;5034023;28;20099;-61
2023/02/11 07:35:25;;;;;;;32.95;18.02;;;2.40;88.00;;;;;;5036916;28;20048;-61
2023/02/11 07:37:54;;;;;;;33.55;18.10;;;2.40;88.00;;;;;;5039099;28;20048;-62
2023/02/11 07:40:21;;;;;;;30.35;17.55;;;2.40;88.10;;;;;;5038455;28;20048;-60
2023/02/11 07:42:47;;;;;;;31.15;16.70;;;2.50;88.10;;;;;;5039035;28;20049;-60
2023/02/11 07:45:15;;;;;;;33.75;18.40;;;2.50;88.00;;;;;;5040371;28;20427;-62
2023/02/11 07:47:42;;;;;;;32.33;17.27;;;2.50;88.00;;;;;;5038833;28;20049;-61
2023/02/11 07:50:09;;;;;;;33.75;18.27;;;2.50;88.00;;;;;;5040205;28;20072;-64
2023/02/11 07:52:36;;;;;;;32.50;17.80;;;2.50;87.80;;;;;;4999797;28;20054;-62
2023/02/11 07:55:05;;;;;;;33.72;18.70;;;2.50;87.80;;;;;;4997945;28;20053;-61
2023/02/11 07:57:32;;;;;;;32.22;17.83;;;2.50;87.90;;;;;;4997680;28;20046;-62
2023/02/11 07:59:58;;;;;;;29.27;16.65;;;2.50;87.90;;;;;;4998932;28;20046;-61
2023/02/11 08:02:25;;;;;;;36.72;18.38;;;2.50;87.70;;;;;;5000385;28;20400;-62
2023/02/11 08:04:52;;;;;;;33.22;18.27;;;2.50;87.90;;;;;;5000219;28;20507;-62
2023/02/11 08:07:19;;;;;;;33.05;17.38;;;2.50;87.90;;;;;;4998721;28;20503;-62
2023/02/11 08:09:46;;;;;;;33.90;16.85;;;2.60;87.90;;;;;;4996878;28;20064;-62
2023/02/11 08:12:15;;;;;;;32.53;17.60;;;2.60;87.70;;;;;;4997747;28;20060;-61
2023/02/11 08:14:41;;;;;;;32.38;17.63;;;2.60;87.80;;;;;;4998209;28;20069;-61
2023/02/11 08:17:08;;;;;;;36.00;17.95;;;2.70;87.90;;;;;;4997824;28;20144;-68
2023/02/11 08:19:36;;;;;;;31.27;18.20;;;2.70;87.90;;;;;;4999767;28;20054;-68
2023/02/11 08:22:03;;;;;;;33.88;17.58;;;2.70;87.80;;;;;;4999507;28;20054;-68
2023/02/11 08:24:30;;;;;;;33.63;18.70;;;2.80;87.80;;;;;;4998500;28;20042;-67
2023/02/11 08:26:57;;;;;;;32.03;17.52;;;2.80;87.60;;;;;;4997446;28;20489;-68
2023/02/11 08:29:25;;;;;;;34.05;18.02;;;2.90;87.60;;;;;;4999844;28;20053;-68
2023/02/11 08:31:52;;;;;;;34.40;18.40;;;2.90;87.60;;;;;;4997439;28;20058;-67
2023/02/11 08:34:19;;;;;;;31.92;18.05;;;3.00;87.60;;;;;;4993347;28;20133;-67
2023/02/11 08:36:47;;;;;;;31.90;17.17;;;3.00;87.60;;;;;;4994038;28;20477;-68
2023/02/11 08:39:17;;;;;;;30.88;18.65;;;3.00;87.50;;;;;;4999231;28;20045;-68
2023/02/11 08:41:44;;;;;;;33.75;17.65;;;3.10;87.40;;;;;;4995632;28;20041;-67
2023/02/11 08:44:11;;;;;;;31.35;17.50;;;3.10;87.30;;;;;;4997982;28;20377;-66
2023/02/11 08:46:39;;;;;;;29.52;16.70;;;3.20;87.30;;;;;;4996731;28;20052;-67
2023/02/11 08:49:06;;;;;;;31.08;17.70;;;3.20;87.20;;;;;;4998988;28;20043;-67
2023/02/11 08:51:33;;;;;;;33.00;17.52;;;3.30;87.00;;;;;;5019335;28;20056;-68
2023/02/11 08:54:01;;;;;;;29.35;15.60;;;3.40;87.00;;;;;;5037919;28;20486;-68
2023/02/11 08:56:30;;;;;;;29.02;17.23;;;3.40;86.90;;;;;;5039471;28;20081;-69
2023/02/11 08:58:57;;;;;;;33.28;17.42;;;3.50;86.80;;;;;;5038495;28;20570;-66
2023/02/11 09:01:25;;;;;;;36.20;17.88;;;3.50;86.70;;;;;;5037489;28;20381;-60
2023/02/11 09:03:54;;;;;;;32.53;17.73;;;3.50;86.70;;;;;;5037751;28;20049;-62
2023/02/11 09:06:22;;;;;;;32.28;18.08;;;3.60;86.70;;;;;;5035731;28;20045;-61
2023/02/11 09:08:51;;;;;;;30.75;16.70;;;3.60;86.70;;;;;;5037774;28;20045;-62
2023/02/11 09:11:20;;;;;;;33.30;18.10;;;3.70;86.50;;;;;;5037323;28;20184;-61
2023/02/11 09:13:48;;;;;;;31.52;17.60;;;3.70;86.50;;;;;;5040185;28;20049;-62
2023/02/11 09:16:17;;;;;;;31.27;17.73;;;3.70;86.40;;;;;;5032648;28;20049;-61
2023/02/11 09:18:44;;;;;;;31.70;16.92;;;3.70;86.40;;;;;;5037005;28;20065;-62
2023/02/11 09:21:14;;;;;;;30.23;17.98;;;3.70;86.50;;;;;;5038721;28;20080;-60
2023/02/11 09:23:43;;;;;;;28.08;16.58;;;3.80;86.40;;;;;;5035090;28;20056;-61
2023/02/11 09:26:14;;;;;;;32.22;17.85;;;3.80;86.30;;;;;;5026782;28;20045;-61
2023/02/11 09:28:40;;;;;;;;;;;3.90;86.30;;;;;;5038705;28;20488;-62
2023/02/11 09:31:10;;;;;;;25.88;15.88;;;3.90;86.30;;;;;;5037682;28;19944;-61
2023/02/11 09:33:40;;;;;;;33.25;17.33;;;3.90;86.50;;;;;;5032932;28;20136;-61
2023/02/11 09:36:09;;;;;;;36.90;18.23;;;3.90;86.40;;;;;;5035848;28;20043;-62
2023/02/11 09:38:37;;;;;;;33.85;17.90;;;4.00;86.30;;;;;;5037332;28;20459;-62
2023/02/11 09:41:06;;;;;;;30.02;16.92;;;3.90;86.40;;;;;;5036274;28;20399;-61
2023/02/11 09:43:38;;;;;;;31.05;18.08;;;4.00;86.30;;;;;;5036780;28;20077;-62
2023/02/11 09:46:05;;;;;;;31.58;17.80;;;4.00;86.20;;;;;;5037114;28;20034;-61
2023/02/11 09:48:40;;;;;;;30.58;17.27;;;4.00;86.20;;;;;;5037334;28;20053;-62
2023/02/11 09:51:18;;;;;;;34.10;17.65;;;4.00;86.20;;;;;;5038080;28;20543;-62
2023/02/11 09:53:54;;;;;;;30.95;17.40;;;4.00;86.10;;;;;;5033355;28;20083;-62
2023/02/11 09:56:24;;;;;;;30.33;17.15;;;4.10;86.00;;;;;;5035635;28;20137;-61
2023/02/11 09:58:50;;;;;;;29.02;17.38;;;4.10;86.00;;;;;;5037070;28;20061;-62
2023/02/11 10:01:29;;;;;;;32.17;16.77;;;4.10;86.00;;;;;;5037400;28;20067;-61
2023/02/11 10:04:06;;;;;;;29.83;17.00;;;4.20;85.80;;;;;;5036376;28;20064;-61
2023/02/11 10:06:42;;;;;;;32.70;17.88;;;4.20;85.80;;;;;;5037067;28;20041;-62
2023/02/11 10:09:21;;;;;;;29.30;15.43;;;4.30;85.70;;;;;;5036104;28;20056;-62
2023/02/11 10:11:58;;;;;;;28.05;16.65;;;4.40;85.50;;;;;;5035803;28;20491;-62
2023/02/11 10:14:44;;;;;;;28.55;16.75;;;4.40;85.30;;;;;;5036618;28;20136;-62
2023/02/11 10:17:19;;;;;;;30.50;16.92;;;4.40;85.50;;;;;;5035905;28;20044;-61
2023/02/11 10:20:01;;;;;;;30.73;17.25;;;4.50;85.40;;;;;;5036654;28;20506;-62
2023/02/11 10:22:33;;;;;;;30.73;17.02;;;4.50;85.30;;;;;;5034057;28;20056;-61
2023/02/11 10:25:12;;;;;;;29.50;16.80;;;4.60;85.30;;;;;;5034199;28;21269;-62
2023/02/11 10:27:39;;;;;;;30.65;17.67;;;4.60;85.10;;;;;;5036796;28;20049;-62
2023/02/11 10:30:17;;;;;;;28.17;16.52;;;4.70;85.00;;;;;;5035511;28;20898;-61
2023/02/11 10:32:52;;;;;;;30.70;17.42;;;4.70;84.90;;;;;;5035808;28;20053;-62
2023/02/11 10:35:21;;;;;;;30.77;18.17;;;4.70;85.00;;;;;;5036111;28;20048;-61
2023/02/11 10:37:48;;;;;;;33.45;18.13;;;4.70;84.90;;;;;;5023197;28;20068;-61
2023/02/11 10:40:20;;;;;;;31.25;17.92;;;4.70;84.70;;;;;;5036914;28;20094;-61
2023/02/11 10:42:51;;;;;;;33.38;16.77;;;4.70;84.70;;;;;;5034897;28;20056;-61
2023/02/11 10:45:25;;;;;;;34.35;18.48;;;4.70;84.70;;;;;;5032035;28;20048;-61
2023/02/11 10:47:51;;;;;;;32.08;17.85;;;4.70;84.70;;;;;;5035218;28;20049;-61
2023/02/11 10:50:22;;;;;;;29.48;16.60;;;4.80;84.70;;;;;;5035387;28;20049;-61
2023/02/11 10:52:49;;;;;;;28.83;17.08;;;4.80;84.70;;;;;;5035580;28;20053;-62
2023/02/11 10:55:20;;;;;;;29.38;16.63;;;4.80;84.60;;;;;;5035945;28;20061;-62
2023/02/11 10:57:55;;;;;;;30.08;17.23;;;4.80;84.70;;;;;;5035605;28;20100;-62
2023/02/11 11:00:37;;;;;;;29.88;16.15;;;4.80;84.40;;;;;;5032350;28;20056;-61
2023/02/11 11:03:07;;;;;;;29.58;16.77;;;4.80;84.40;;;;;;5028674;28;20045;-61
2023/02/11 11:05:37;;;;;;;29.80;17.25;;;4.90;84.50;;;;;;5034135;28;20050;-62
2023/02/11 11:08:07;;;;;;;27.88;16.90;;;4.90;84.40;;;;;;5032750;28;20064;-62
2023/02/11 11:10:43;;;;;;;32.47;18.40;;;4.90;84.50;;;;;;5036879;28;20037;-61
2023/02/11 11:13:28;;;;;;;28.90;17.15;;;4.90;84.50;;;;;;5037183;28;20056;-61
2023/02/11 11:16:20;;;;;;;31.83;18.10;;;4.90;84.30;;;;;;5033433;28;20115;-63
2023/02/11 11:18:49;;;;;;;27.33;17.88;;;4.90;84.30;;;;;;5037552;28;20045;-61
2023/02/11 11:21:20;;;;;;;32.95;17.35;;;4.90;84.30;;;;;;5036715;28;20418;-62
2023/02/11 11:23:53;;;;;;;32.47;18.00;;;4.90;84.40;;;;;;5032569;28;20056;-61
2023/02/11 11:26:24;;;;;;;29.05;17.20;;;4.90;84.20;;;;;;5035787;28;20054;-61
2023/02/11 11:29:00;;;;;;;31.08;17.48;;;4.90;84.30;;;;;;5035654;28;20136;-62
2023/02/11 11:31:32;;;;;;;30.27;16.30;;;5.00;84.30;;;;;;5036804;28;20096;-62
2023/02/11 11:34:01;;;;;;;32.17;17.92;;;5.00;84.30;;;;;;5033934;28;20051;-62
2023/02/11 11:36:36;;;;;;;33.72;18.15;;;5.00;84.30;;;;;;5036162;28;20127;-61
2023/02/11 11:39:18;;;;;;;34.38;17.98;;;5.00;84.30;;;;;;5035094;28;20403;-62
2023/02/11 11:41:55;;;;;;;33.67;17.60;;;5.00;84.30;;;;;;5032909;28;20457;-62
2023/02/11 11:44:31;;;;;;;30.38;16.17;;;4.90;84.40;;;;;;5034018;28;20076;-62
2023/02/11 11:47:25;;;;;;;29.98;17.35;;;5.00;84.50;;;;;;5030707;28;20056;-61
2023/02/11 11:50:24;;;;;;;29.85;17.35;;;5.00;84.60;;;;;;5017782;28;21136;-61
2023/02/11 11:52:59;;;;;;;26.30;16.08;;;5.00;84.40;;;;;;5030212;28;20063;-63
2023/02/11 11:55:31;;;;;;;27.23;16.60;;;5.10;84.50;;;;;;5034627;28;20057;-61
2023/02/11 11:57:59;;;;;;;28.52;17.70;;;5.10;84.50;;;;;;5035648;28;20053;-62
2023/02/11 12:00:32;;;;;;;29.80;16.98;;;5.10;84.30;;;;;;5036848;28;20563;-63
2023/02/11 12:03:30;;;;;;;26.63;16.40;;;5.10;84.40;;;;;;5033534;28;20107;-61
2023/02/11 12:06:17;;;;;;;29.30;16.67;;;5.10;84.30;;;;;;5033719;28;20056;-61
2023/02/11 12:08:58;;;;;;;30.60;16.42;;;5.20;84.40;;;;;;5033506;28;20055;-61
2023/02/11 12:11:33;;;;;;;27.17;16.13;;;5.20;84.60;;;;;;5033323;28;20056;-62
2023/02/11 12:14:12;;;;;;;30.65;17.42;;;5.20;84.60;;;;;;5034150;28;20049;-61
2023/02/11 12:16:51;;;;;;;29.23;16.15;;;5.20;84.70;;;;;;5034733;28;20055;-61
2023/02/11 12:19:39;;;;;;;32.93;17.40;;;5.20;84.50;;;;;;5031281;28;20511;-61
2023/02/11 12:22:11;;;;;;;26.88;16.00;;;5.20;84.50;;;;;;5033271;28;20045;-61
2023/02/11 12:24:55;;;;;;;28.40;16.35;;;5.20;84.50;;;;;;5038006;28;20048;-62
2023/02/11 12:27:40;;;;;;;29.40;16.73;;;5.20;84.40;;;;;;5038041;28;20167;-61
2023/02/11 12:30:21;;;;;;;29.80;17.45;;;5.30;84.60;;;;;;5040876;28;20045;-61
2023/02/11 12:32:54;;;;;;;29.45;16.10;;;5.30;84.60;;;;;;5038157;28;20407;-62
2023/02/11 12:35:35;;;;;;;28.38;16.98;;;5.30;84.70;;;;;;5037949;28;20415;-61
2023/02/11 12:38:21;;;;;;;29.58;15.77;;;5.30;84.70;;;;;;5035772;28;20091;-62
2023/02/11 12:41:00;;;;;;;26.83;15.93;;;5.30;84.60;;;;;;5037453;28;20061;-62
2023/02/11 12:43:32;;;;;;;30.58;16.60;;;5.30;84.40;;;;;;5037699;28;20056;-61
2023/02/11 12:46:11;;;;;;;28.05;16.98;;;5.30;84.60;;;;;;5038867;28;20155;-62
2023/02/11 12:49:10;;;;;;;31.77;17.48;;;5.30;84.70;;;;;;5034901;28;20052;-62
2023/02/11 12:51:56;;;;;;;28.40;16.02;;;5.30;84.60;;;;;;5036573;28;20059;-62
2023/02/11 12:54:28;;;;;;;31.27;16.65;;;5.30;84.60;;;;;;5036199;28;20045;-61
2023/02/11 12:57:01;;;;;;;30.75;17.95;;;5.30;84.70;;;;;;5037742;28;20129;-62
2023/02/11 12:59:40;;;;;;;28.90;17.13;;;5.40;84.70;;;;;;5037011;28;20562;-62
2023/02/11 13:02:18;;;;;;;30.75;17.05;;;5.30;84.80;;;;;;5036085;28;20523;-60
2023/02/11 13:04:50;;;;;;;30.52;17.52;;;5.40;84.70;;;;;;5036780;28;20415;-62
2023/02/11 13:07:22;;;;;;;28.65;16.70;;;5.40;84.90;;;;;;5037695;28;20069;-61